createdAt,value
2018-06-12T00:00:26.102Z,17.37
2018-06-12T00:01:26.123Z,17.41
2018-06-12T00:02:26.128Z,17.43
2018-06-12T00:03:26.145Z,17.34
2018-06-12T00:04:26.159Z,17.36
2018-06-12T00:05:26.174Z,17.19
2018-06-12T00:06:26.189Z,17.15
2018-06-12T00:07:26.207Z,17.19
2018-06-12T00:08:26.223Z,17.25
2018-06-12T00:09:26.238Z,17.38
2018-06-12T00:10:26.256Z,17.41
2018-06-12T00:11:26.271Z,17.34
2018-06-12T00:12:26.288Z,17.31
2018-06-12T00:13:26.302Z,17.37
2018-06-12T00:14:26.331Z,17.41
2018-06-12T00:15:26.337Z,17.14
2018-06-12T00:16:26.351Z,17.21
2018-06-12T00:17:26.368Z,17.21
2018-06-12T00:18:26.389Z,17.04
2018-06-12T00:19:26.398Z,17.11
2018-06-12T00:20:26.417Z,17.04
2018-06-12T00:21:26.439Z,17.07
2018-06-12T00:22:26.444Z,17.03
2018-06-12T00:23:26.462Z,16.98
2018-06-12T00:24:26.577Z,17.06
2018-06-12T00:25:26.962Z,17.06
2018-06-12T00:26:26.516Z,17.00
2018-06-12T00:27:26.527Z,17.11
2018-06-12T00:28:26.545Z,17.18
2018-06-12T00:29:26.562Z,17.22
2018-06-12T00:30:26.575Z,17.15
2018-06-12T00:31:26.596Z,17.22
2018-06-12T00:32:26.607Z,17.18
2018-06-12T00:33:26.721Z,17.12
2018-06-12T00:34:26.636Z,17.04
2018-06-12T00:35:26.653Z,17.06
2018-06-12T00:36:26.670Z,17.14
2018-06-12T00:37:26.685Z,17.11
2018-06-12T00:38:26.701Z,17.08
2018-06-12T00:39:26.719Z,17.08
2018-06-12T00:40:26.738Z,16.96
2018-06-12T00:41:26.748Z,16.89
2018-06-12T00:42:26.766Z,16.79
2018-06-12T00:43:26.782Z,16.86
2018-06-12T00:44:26.796Z,16.83
2018-06-12T00:45:26.814Z,16.91
2018-06-12T00:46:27.138Z,16.82
2018-06-12T00:47:26.847Z,16.79
2018-06-12T00:48:26.869Z,16.71
2018-06-12T00:49:26.876Z,16.71
2018-06-12T00:50:26.903Z,16.78
2018-06-12T00:51:26.909Z,16.76
2018-06-12T00:52:26.924Z,16.79
2018-06-12T00:53:26.940Z,16.93
2018-06-12T00:54:26.963Z,16.83
2018-06-12T00:55:26.974Z,16.76
2018-06-12T00:56:26.988Z,16.76
2018-06-12T00:57:27.001Z,16.71
2018-06-12T00:58:27.021Z,16.71
2018-06-12T00:59:27.037Z,16.76
2018-06-12T01:00:27.050Z,16.71
2018-06-12T01:01:27.066Z,16.79
2018-06-12T01:02:27.083Z,16.88
2018-06-12T01:03:27.099Z,16.91
2018-06-12T01:04:27.114Z,16.75
2018-06-12T01:05:27.130Z,16.83
2018-06-12T01:06:27.145Z,16.82
2018-06-12T01:07:27.171Z,16.66
2018-06-12T01:08:27.176Z,16.67
2018-06-12T01:09:27.200Z,16.71
2018-06-12T01:10:27.209Z,16.66
2018-06-12T01:11:27.234Z,16.63
2018-06-12T01:12:27.236Z,16.61
2018-06-12T01:13:27.263Z,16.67
2018-06-12T01:14:27.271Z,16.70
2018-06-12T01:15:27.282Z,16.68
2018-06-12T01:16:27.316Z,16.75
2018-06-12T01:17:27.313Z,16.79
2018-06-12T01:18:27.329Z,16.83
2018-06-12T01:19:27.350Z,16.83
2018-06-12T01:20:27.361Z,16.83
2018-06-12T01:21:27.375Z,16.81
2018-06-12T01:22:27.406Z,16.78
2018-06-12T01:23:27.411Z,16.75
2018-06-12T01:24:27.430Z,16.67
2018-06-12T01:25:27.438Z,16.68
2018-06-12T01:26:27.469Z,16.60
2018-06-12T01:27:27.471Z,16.68
2018-06-12T01:28:27.496Z,16.60
2018-06-12T01:29:27.503Z,16.61
2018-06-12T01:30:27.520Z,16.63
2018-06-12T01:31:27.539Z,16.60
2018-06-12T01:32:27.566Z,16.56
2018-06-12T01:33:27.570Z,16.50
2018-06-12T01:34:27.592Z,16.49
2018-06-12T01:35:27.595Z,16.50
2018-06-12T01:36:27.612Z,16.34
2018-06-12T01:37:27.627Z,16.35
2018-06-12T01:38:27.643Z,16.34
2018-06-12T01:39:27.666Z,16.33
2018-06-12T01:40:27.676Z,16.21
2018-06-12T01:41:27.690Z,16.38
2018-06-12T01:42:27.706Z,16.33
2018-06-12T01:43:27.727Z,16.30
2018-06-12T01:44:27.743Z,16.33
2018-06-12T01:45:27.780Z,16.27
2018-06-12T01:46:27.833Z,16.15
2018-06-12T01:47:27.813Z,16.11
2018-06-12T01:48:27.801Z,16.05
2018-06-12T01:49:27.818Z,16.07
2018-06-12T01:50:27.838Z,16.11
2018-06-12T01:51:27.850Z,15.93
2018-06-12T01:52:27.870Z,15.97
2018-06-12T01:53:27.883Z,15.96
2018-06-12T01:54:27.896Z,16.00
2018-06-12T01:55:27.911Z,15.90
2018-06-12T01:56:27.925Z,15.96
2018-06-12T01:57:27.942Z,16.04
2018-06-12T01:58:27.970Z,16.08
2018-06-12T01:59:27.972Z,16.04
2018-06-12T02:00:27.989Z,16.11
2018-06-12T02:01:28.004Z,16.05
2018-06-12T02:02:28.018Z,15.93
2018-06-12T02:03:28.040Z,15.97
2018-06-12T02:04:28.106Z,15.90
2018-06-12T02:05:28.079Z,15.87
2018-06-12T02:06:28.081Z,15.84
2018-06-12T02:07:28.100Z,15.86
2018-06-12T02:08:28.123Z,15.87
2018-06-12T02:09:28.131Z,16.00
2018-06-12T02:10:28.143Z,15.96
2018-06-12T02:11:28.159Z,15.94
2018-06-12T02:12:28.175Z,15.93
2018-06-12T02:13:28.192Z,15.93
2018-06-12T02:14:28.214Z,15.94
2018-06-12T02:15:28.225Z,15.97
2018-06-12T02:16:28.243Z,16.08
2018-06-12T02:17:28.257Z,16.08
2018-06-12T02:18:28.274Z,16.05
2018-06-12T02:19:28.291Z,16.00
2018-06-12T02:20:28.303Z,15.96
2018-06-12T02:21:28.319Z,16.00
2018-06-12T02:22:28.336Z,15.93
2018-06-12T02:23:28.355Z,15.96
2018-06-12T02:24:28.364Z,16.07
2018-06-12T02:25:28.387Z,16.11
2018-06-12T02:26:28.395Z,16.14
2018-06-12T02:27:28.412Z,16.04
2018-06-12T02:28:28.428Z,16.21
2018-06-12T02:29:28.452Z,16.05
2018-06-12T02:30:28.462Z,16.14
2018-06-12T02:31:28.476Z,16.07
2018-06-12T02:32:28.488Z,16.08
2018-06-12T02:33:28.514Z,16.00
2018-06-12T02:34:28.524Z,15.97
2018-06-12T02:36:28.803Z,15.96
2018-06-12T02:37:28.661Z,15.96
2018-06-12T02:38:28.580Z,15.96
2018-06-12T02:39:28.600Z,15.97
2018-06-12T02:40:28.612Z,15.97
2018-06-12T02:41:28.626Z,16.00
2018-06-12T02:42:28.650Z,15.97
2018-06-12T02:43:28.659Z,16.07
2018-06-12T02:44:28.678Z,16.05
2018-06-12T02:45:28.690Z,15.97
2018-06-12T02:46:28.708Z,16.01
2018-06-12T02:47:28.722Z,15.96
2018-06-12T02:48:28.741Z,15.90
2018-06-12T02:49:28.759Z,15.87
2018-06-12T02:50:28.776Z,15.76
2018-06-12T02:51:28.787Z,15.75
2018-06-12T02:52:28.799Z,15.72
2018-06-12T02:53:28.808Z,15.74
2018-06-12T02:54:28.823Z,15.80
2018-06-12T02:55:28.839Z,15.75
2018-06-12T02:56:28.864Z,15.78
2018-06-12T02:57:28.869Z,15.76
2018-06-12T02:58:28.888Z,15.74
2018-06-12T02:59:28.901Z,15.82
2018-06-12T03:00:28.916Z,15.83
2018-06-12T03:01:28.931Z,15.75
2018-06-12T03:02:28.952Z,15.74
2018-06-12T03:03:28.961Z,15.80
2018-06-12T03:04:28.985Z,15.89
2018-06-12T03:05:28.993Z,15.86
2018-06-12T03:06:29.022Z,15.78
2018-06-12T03:07:29.109Z,15.76
2018-06-12T03:08:29.040Z,15.83
2018-06-12T03:09:29.055Z,15.82
2018-06-12T03:10:29.090Z,15.72
2018-06-12T03:11:29.090Z,15.74
2018-06-12T03:12:29.100Z,15.72
2018-06-12T03:13:29.115Z,15.78
2018-06-12T03:14:29.131Z,15.74
2018-06-12T03:15:29.151Z,15.75
2018-06-12T03:16:29.163Z,15.78
2018-06-12T03:17:29.178Z,15.78
2018-06-12T03:18:29.215Z,15.83
2018-06-12T03:19:29.212Z,15.78
2018-06-12T03:20:29.223Z,15.87
2018-06-12T03:21:29.251Z,15.80
2018-06-12T03:22:29.260Z,15.83
2018-06-12T03:23:29.278Z,15.83
2018-06-12T03:24:29.287Z,15.86
2018-06-12T03:25:29.301Z,15.89
2018-06-12T03:26:29.324Z,16.00
2018-06-12T03:27:29.335Z,15.97
2018-06-12T03:28:29.349Z,15.87
2018-06-12T03:29:29.361Z,15.86
2018-06-12T03:30:29.381Z,15.90
2018-06-12T03:31:29.395Z,15.86
2018-06-12T03:32:29.412Z,15.78
2018-06-12T03:33:29.424Z,15.76
2018-06-12T03:34:29.446Z,15.78
2018-06-12T03:35:29.458Z,15.76
2018-06-12T03:36:29.484Z,15.82
2018-06-12T03:37:29.485Z,15.78
2018-06-12T03:38:29.508Z,15.84
2018-06-12T03:39:29.524Z,15.78
2018-06-12T03:40:29.550Z,15.74
2018-06-12T03:41:29.549Z,15.62
2018-06-12T03:42:29.564Z,15.69
2018-06-12T03:43:29.580Z,15.80
2018-06-12T03:44:29.607Z,15.67
2018-06-12T03:45:29.613Z,15.54
2018-06-12T03:46:29.627Z,15.69
2018-06-12T03:47:29.643Z,15.72
2018-06-12T03:48:29.660Z,15.78
2018-06-12T03:49:29.678Z,15.74
2018-06-12T03:50:29.690Z,15.82
2018-06-12T03:51:29.707Z,15.74
2018-06-12T03:52:29.722Z,15.75
2018-06-12T03:53:29.751Z,15.74
2018-06-12T03:54:29.749Z,15.75
2018-06-12T03:55:29.766Z,15.74
2018-06-12T03:56:29.781Z,15.78
2018-06-12T03:57:29.832Z,15.69
2018-06-12T03:58:29.815Z,15.68
2018-06-12T03:59:29.829Z,15.78
2018-06-12T04:00:29.945Z,15.69
2018-06-12T04:01:29.860Z,15.84
2018-06-12T04:02:29.880Z,15.75
2018-06-12T04:03:29.891Z,15.76
2018-06-12T04:04:29.911Z,15.69
2018-06-12T04:05:29.920Z,15.82
2018-06-12T04:06:29.944Z,15.74
2018-06-12T04:07:29.973Z,15.67
2018-06-12T04:08:29.968Z,15.65
2018-06-12T04:09:29.995Z,15.62
2018-06-12T04:10:30.021Z,15.56
2018-06-12T04:11:30.105Z,15.75
2018-06-12T04:12:30.163Z,15.76
2018-06-12T04:13:30.057Z,15.75
2018-06-12T04:14:30.064Z,15.76
2018-06-12T04:15:30.090Z,15.80
2018-06-12T04:16:30.092Z,15.82
2018-06-12T04:17:30.106Z,15.90
2018-06-12T04:18:30.131Z,15.93
2018-06-12T04:19:30.141Z,15.80
2018-06-12T04:20:30.201Z,15.82
2018-06-12T04:21:30.170Z,15.74
2018-06-12T04:22:30.186Z,15.83
2018-06-12T04:23:30.204Z,15.87
2018-06-12T04:24:30.221Z,16.01
2018-06-12T04:25:30.240Z,16.01
2018-06-12T04:26:30.248Z,15.93
2018-06-12T04:27:30.267Z,15.97
2018-06-12T04:28:30.284Z,15.92
2018-06-12T04:29:30.293Z,15.90
2018-06-12T04:30:30.313Z,15.87
2018-06-12T04:31:30.321Z,15.75
2018-06-12T04:32:30.348Z,15.83
2018-06-12T04:33:30.353Z,15.80
2018-06-12T04:34:30.367Z,15.87
2018-06-12T04:35:30.382Z,15.78
2018-06-12T04:36:30.406Z,15.76
2018-06-12T04:37:30.427Z,15.80
2018-06-12T04:38:30.427Z,15.75
2018-06-12T04:39:30.454Z,15.84
2018-06-12T04:40:30.471Z,15.76
2018-06-12T04:41:30.492Z,15.78
2018-06-12T04:42:30.490Z,15.78
2018-06-12T04:43:31.396Z,15.80
2018-06-12T04:44:30.521Z,15.78
2018-06-12T04:45:30.720Z,15.84
2018-06-12T04:46:30.562Z,15.83
2018-06-12T04:47:30.567Z,15.84
2018-06-12T04:48:30.642Z,15.78
2018-06-12T04:49:30.599Z,15.82
2018-06-12T04:50:30.616Z,15.82
2018-06-12T04:51:30.840Z,15.76
2018-06-12T04:52:30.661Z,15.84
2018-06-12T04:53:30.667Z,15.78
2018-06-12T04:54:30.679Z,15.76
2018-06-12T04:55:30.695Z,15.80
2018-06-12T04:56:30.738Z,15.76
2018-06-12T04:57:30.720Z,15.74
2018-06-12T04:58:30.739Z,15.71
2018-06-12T04:59:30.753Z,15.78
2018-06-12T05:00:30.768Z,15.76
2018-06-12T05:01:30.786Z,15.75
2018-06-12T05:02:30.798Z,15.84
2018-06-12T05:03:30.815Z,15.89
2018-06-12T05:04:30.838Z,15.94
2018-06-12T05:05:30.853Z,16.02
2018-06-12T05:06:30.865Z,16.01
2018-06-12T05:07:30.880Z,16.11
2018-06-12T05:08:31.037Z,16.08
2018-06-12T05:09:30.909Z,16.08
2018-06-12T05:10:30.968Z,16.07
2018-06-12T05:11:31.465Z,16.07
2018-06-12T05:12:30.963Z,16.09
2018-06-12T05:13:30.991Z,16.07
2018-06-12T05:14:31.030Z,16.12
2018-06-12T05:15:31.005Z,16.24
2018-06-12T05:16:31.088Z,16.14
2018-06-12T05:17:31.044Z,16.09
2018-06-12T05:18:31.053Z,16.23
2018-06-12T05:19:31.067Z,16.05
2018-06-12T05:20:31.082Z,16.08
2018-06-12T05:21:31.096Z,16.00
2018-06-12T05:22:31.146Z,16.07
2018-06-12T05:23:31.139Z,16.12
2018-06-12T05:24:31.148Z,16.05
2018-06-12T05:25:31.213Z,16.08
2018-06-12T05:26:31.178Z,16.08
2018-06-12T05:27:31.191Z,16.05
2018-06-12T05:28:31.204Z,16.14
2018-06-12T05:29:31.234Z,16.30
2018-06-12T05:30:31.276Z,16.17
2018-06-12T05:31:31.261Z,16.20
2018-06-12T05:32:31.285Z,16.25
2018-06-12T05:33:31.283Z,16.27
2018-06-12T05:34:31.326Z,16.35
2018-06-12T05:35:31.327Z,16.35
2018-06-12T05:36:31.330Z,16.39
2018-06-12T05:37:31.519Z,16.41
2018-06-12T05:38:31.362Z,16.33
2018-06-12T05:39:31.386Z,16.34
2018-06-12T05:40:31.398Z,16.39
2018-06-12T05:41:31.426Z,16.45
2018-06-12T05:42:31.425Z,16.49
2018-06-12T05:43:31.528Z,16.46
2018-06-12T05:44:31.457Z,16.43
2018-06-12T05:45:31.475Z,16.42
2018-06-12T05:46:31.491Z,16.48
2018-06-12T05:47:31.505Z,16.49
2018-06-12T05:48:31.527Z,16.49
2018-06-12T05:49:31.551Z,16.48
2018-06-12T05:50:31.557Z,16.45
2018-06-12T05:51:31.700Z,16.48
2018-06-12T05:52:31.639Z,16.49
2018-06-12T05:53:31.599Z,16.52
2018-06-12T05:54:31.686Z,16.60
2018-06-12T05:55:31.630Z,16.63
2018-06-12T05:56:31.644Z,16.70
2018-06-12T05:57:31.659Z,16.63
2018-06-12T05:58:31.674Z,16.60
2018-06-12T05:59:31.702Z,16.60
2018-06-12T06:00:31.709Z,16.67
2018-06-12T06:01:31.733Z,16.68
2018-06-12T06:02:31.741Z,16.70
2018-06-12T06:03:31.762Z,16.68
2018-06-12T06:04:31.777Z,16.70
2018-06-12T06:05:31.793Z,16.71
2018-06-12T06:06:31.822Z,16.63
2018-06-12T06:07:31.817Z,16.64
2018-06-12T06:08:31.847Z,16.75
2018-06-12T06:09:31.851Z,16.81
2018-06-12T06:10:31.902Z,16.81
2018-06-12T06:11:31.926Z,16.60
2018-06-12T06:12:31.891Z,16.56
2018-06-12T06:13:32.142Z,16.52
2018-06-12T06:14:31.926Z,16.64
2018-06-12T06:15:31.940Z,16.64
2018-06-12T06:16:31.958Z,16.68
2018-06-12T06:17:31.971Z,16.78
2018-06-12T06:18:31.989Z,16.63
2018-06-12T06:19:32.018Z,16.60
2018-06-12T06:20:32.022Z,16.75
2018-06-12T06:21:32.232Z,16.85
2018-06-12T06:22:32.161Z,16.86
2018-06-12T06:23:32.075Z,16.86
2018-06-12T06:25:32.100Z,16.94
2018-06-12T06:26:32.114Z,16.94
2018-06-12T06:27:32.128Z,16.97
2018-06-12T06:29:32.163Z,17.07
2018-06-12T06:30:32.176Z,17.07
2018-06-12T06:31:32.209Z,17.07
2018-06-12T06:32:32.208Z,17.14
2018-06-12T06:33:32.237Z,17.06
2018-06-12T06:34:32.254Z,17.19
2018-06-12T06:35:32.305Z,17.21
2018-06-12T06:36:32.326Z,17.15
2018-06-12T06:37:32.293Z,17.22
2018-06-12T06:38:32.369Z,17.14
2018-06-12T06:40:32.338Z,17.22
2018-06-12T06:41:32.539Z,17.19
2018-06-12T06:42:32.368Z,17.23
2018-06-12T06:43:32.972Z,17.21
2018-06-12T06:44:32.508Z,17.28
2018-06-12T06:45:32.653Z,17.15
2018-06-12T06:46:32.768Z,17.19
2018-06-12T06:47:32.447Z,17.19
2018-06-12T06:48:32.462Z,17.21
2018-06-12T06:49:32.508Z,17.21
2018-06-12T06:50:32.496Z,17.07
2018-06-12T06:51:32.976Z,17.19
2018-06-12T06:52:32.640Z,17.23
2018-06-12T06:53:32.591Z,17.25
2018-06-12T06:54:32.559Z,17.31
2018-06-12T06:55:32.574Z,17.36
2018-06-12T06:56:33.166Z,17.37
2018-06-12T06:57:32.615Z,17.49
2018-06-12T06:58:32.814Z,17.41
2018-06-12T06:59:32.658Z,17.36
2018-06-12T07:00:32.661Z,17.46
2018-06-12T07:01:32.671Z,17.49
2018-06-12T07:02:32.992Z,17.44
2018-06-12T07:03:32.741Z,17.37
2018-06-12T07:04:32.719Z,17.48
2018-06-12T07:05:32.827Z,17.51
2018-06-12T07:06:32.752Z,17.66
2018-06-12T07:07:32.867Z,17.64
2018-06-12T07:08:32.970Z,17.58
2018-06-12T07:09:33.303Z,17.54
2018-06-12T07:10:32.816Z,17.51
2018-06-12T07:11:33.324Z,17.63
2018-06-12T07:12:32.848Z,17.64
2018-06-12T07:13:32.866Z,17.66
2018-06-12T07:14:32.891Z,17.70
2018-06-12T07:15:33.751Z,17.75
2018-06-12T07:16:33.423Z,17.70
2018-06-12T07:17:32.944Z,17.75
2018-06-12T07:18:32.966Z,17.79
2018-06-12T07:19:32.972Z,17.75
2018-06-12T07:20:32.987Z,17.72
2018-06-12T07:21:32.999Z,17.81
2018-06-12T07:22:33.007Z,17.78
2018-06-12T07:23:33.052Z,17.64
2018-06-12T07:24:33.043Z,17.62
2018-06-12T07:25:33.276Z,17.66
2018-06-12T07:26:33.091Z,17.59
2018-06-12T07:27:33.353Z,17.75
2018-06-12T07:28:33.112Z,17.70
2018-06-12T07:29:33.458Z,17.74
2018-06-12T07:30:33.164Z,17.72
2018-06-12T07:31:33.319Z,17.74
2018-06-12T07:32:33.182Z,17.68
2018-06-12T07:33:34.695Z,17.59
2018-06-12T07:35:34.093Z,17.68
2018-06-12T07:36:33.248Z,17.75
2018-06-12T07:37:33.281Z,17.78
2018-06-12T07:38:33.266Z,17.87
2018-06-12T07:39:33.479Z,17.99
2018-06-12T07:40:33.302Z,17.96
2018-06-12T07:41:33.375Z,17.90
2018-06-12T07:42:33.377Z,17.93
2018-06-12T07:43:33.492Z,17.89
2018-06-12T07:44:33.414Z,17.90
2018-06-12T07:45:33.496Z,17.93
2018-06-12T07:46:33.796Z,17.90
2018-06-12T07:47:33.522Z,17.87
2018-06-12T07:48:33.516Z,17.87
2018-06-12T07:49:33.448Z,17.89
2018-06-12T07:50:33.858Z,17.97
2018-06-12T07:51:33.478Z,18.07
2018-06-12T07:52:33.516Z,18.14
2018-06-12T07:54:33.644Z,18.36
2018-06-12T07:55:33.610Z,18.45
2018-06-12T07:56:33.583Z,18.45
2018-06-12T07:57:33.610Z,18.36
2018-06-12T07:58:33.986Z,18.47
2018-06-12T07:59:33.765Z,18.51
2018-06-12T08:00:33.629Z,18.54
2018-06-12T08:01:33.644Z,18.58
2018-06-12T08:02:33.660Z,18.70
2018-06-12T08:03:34.041Z,18.57
2018-06-12T08:04:37.347Z,18.54
2018-06-12T08:05:33.708Z,18.67
2018-06-12T08:06:33.729Z,18.62
2018-06-12T08:07:33.739Z,18.82
2018-06-12T08:08:33.758Z,18.87
2018-06-12T08:09:33.782Z,18.88
2018-06-12T08:10:33.787Z,18.88
2018-06-12T08:11:33.813Z,18.88
2018-06-12T08:12:33.821Z,18.92
2018-06-12T08:13:34.175Z,18.98
2018-06-12T08:14:33.854Z,18.95
2018-06-12T08:15:33.882Z,19.00
2018-06-12T08:16:33.919Z,18.98
2018-06-12T08:17:33.934Z,19.07
2018-06-12T08:18:33.942Z,19.04
2018-06-12T08:19:33.955Z,19.02
2018-06-12T08:20:33.954Z,19.04
2018-06-12T08:21:33.973Z,19.07
2018-06-12T08:22:34.004Z,19.00
2018-06-12T08:23:34.550Z,18.94
2018-06-12T08:24:34.023Z,18.95
2018-06-12T08:25:34.037Z,19.00
2018-06-12T08:26:34.055Z,18.92
2018-06-12T08:27:34.070Z,18.84
2018-06-12T08:28:34.089Z,18.99
2018-06-12T08:29:34.108Z,18.99
2018-06-12T08:30:34.302Z,19.06
2018-06-12T08:31:34.136Z,18.82
2018-06-12T08:32:34.153Z,18.66
2018-06-12T08:33:34.678Z,18.55
2018-06-12T08:34:34.184Z,18.54
2018-06-12T08:35:34.242Z,18.55
2018-06-12T08:36:34.219Z,18.58
2018-06-12T08:37:34.235Z,18.57
2018-06-12T08:38:34.251Z,18.57
2018-06-12T08:39:34.267Z,18.57
2018-06-12T08:40:34.286Z,18.65
2018-06-12T08:41:34.301Z,18.63
2018-06-12T08:42:34.320Z,18.69
2018-06-12T08:43:34.336Z,18.73
2018-06-12T08:44:34.352Z,18.87
2018-06-12T08:45:34.370Z,19.00
2018-06-12T08:46:34.478Z,19.00
2018-06-12T08:47:34.400Z,18.98
2018-06-12T08:48:34.419Z,18.95
2018-06-12T08:49:34.435Z,19.00
2018-06-12T08:50:34.451Z,18.84
2018-06-12T08:51:34.671Z,18.94
2018-06-12T08:52:34.720Z,18.99
2018-06-12T08:53:34.499Z,18.98
2018-06-12T08:54:34.517Z,19.00
2018-06-12T08:55:34.536Z,18.99
2018-06-12T08:56:34.551Z,18.90
2018-06-12T08:57:34.567Z,19.02
2018-06-12T08:58:34.590Z,18.92
2018-06-12T08:59:34.606Z,18.82
2018-06-12T09:00:34.629Z,18.76
2018-06-12T09:01:34.638Z,18.88
2018-06-12T09:02:34.869Z,18.92
2018-06-12T09:04:34.688Z,19.13
2018-06-12T09:05:34.700Z,19.19
2018-06-12T09:06:34.725Z,19.23
2018-06-12T09:07:34.921Z,19.28
2018-06-12T09:08:34.756Z,19.33
2018-06-12T09:09:34.772Z,19.44
2018-06-12T09:10:34.793Z,19.47
2018-06-12T09:11:34.805Z,19.66
2018-06-12T09:12:34.820Z,19.78
2018-06-12T09:13:34.836Z,19.63
2018-06-12T09:14:34.855Z,19.47
2018-06-12T09:15:34.877Z,19.51
2018-06-12T09:16:34.892Z,19.55
2018-06-12T09:17:34.903Z,19.66
2018-06-12T09:18:34.927Z,19.73
2018-06-12T09:19:34.942Z,19.69
2018-06-12T09:20:34.960Z,19.68
2018-06-12T09:21:34.990Z,19.76
2018-06-12T09:22:34.989Z,19.68
2018-06-12T09:23:35.002Z,19.65
2018-06-12T09:24:35.019Z,19.48
2018-06-12T09:25:35.039Z,19.55
2018-06-12T09:26:35.058Z,19.43
2018-06-12T09:27:35.071Z,19.46
2018-06-12T09:28:35.090Z,19.40
2018-06-12T09:29:35.115Z,19.54
2018-06-12T09:30:35.127Z,19.59
2018-06-12T09:32:35.155Z,19.63
2018-06-12T09:34:35.199Z,19.65
2018-06-12T09:35:35.207Z,19.68
2018-06-12T09:36:35.223Z,19.61
2018-06-12T09:37:35.242Z,19.69
2018-06-12T09:38:35.257Z,19.68
2018-06-12T09:39:35.286Z,19.65
2018-06-12T09:40:35.307Z,19.62
2018-06-12T09:41:35.320Z,19.84
2018-06-12T09:42:35.342Z,19.73
2018-06-12T09:43:35.344Z,19.84
2018-06-12T09:44:35.360Z,19.83
2018-06-12T09:45:35.409Z,19.76
2018-06-12T09:46:36.227Z,19.81
2018-06-12T09:47:35.419Z,19.66
2018-06-12T09:48:35.434Z,19.61
2018-06-12T09:49:35.449Z,19.54
2018-06-12T09:50:35.867Z,19.55
2018-06-12T09:51:35.502Z,19.50
2018-06-12T09:52:35.496Z,19.43
2018-06-12T09:53:35.513Z,19.54
2018-06-12T09:54:35.543Z,19.68
2018-06-12T09:55:35.548Z,19.48
2018-06-12T09:56:35.563Z,19.36
2018-06-12T09:57:35.589Z,19.40
2018-06-12T09:58:35.808Z,19.51
2018-06-12T09:59:35.633Z,19.65
2018-06-12T10:00:35.632Z,19.59
2018-06-12T10:01:36.240Z,19.68
2018-06-12T10:02:35.672Z,19.76
2018-06-12T10:03:35.687Z,19.86
2018-06-12T10:04:35.710Z,19.98
2018-06-12T10:05:35.719Z,20.17
2018-06-12T10:06:35.737Z,20.20
2018-06-12T10:07:35.767Z,20.26
2018-06-12T10:08:35.772Z,20.35
2018-06-12T10:09:35.787Z,20.28
2018-06-12T10:10:35.807Z,20.39
2018-06-12T10:11:35.825Z,20.32
2018-06-12T10:12:35.870Z,20.24
2018-06-12T10:14:35.881Z,20.29
2018-06-12T10:15:35.887Z,20.36
2018-06-12T10:16:36.000Z,20.33
2018-06-12T10:17:35.956Z,20.41
2018-06-12T10:18:35.962Z,20.35
2018-06-12T10:19:35.968Z,20.38
2018-06-12T10:20:35.975Z,20.33
2018-06-12T10:21:35.993Z,20.20
2018-06-12T10:22:36.024Z,20.31
2018-06-12T10:23:36.029Z,20.26
2018-06-12T10:24:36.054Z,20.13
2018-06-12T10:25:36.091Z,20.03
2018-06-12T10:26:36.085Z,20.18
2018-06-12T10:27:36.157Z,20.23
2018-06-12T10:28:36.117Z,20.32
2018-06-12T10:29:36.146Z,20.13
2018-06-12T10:30:36.153Z,20.26
2018-06-12T10:31:36.169Z,20.24
2018-06-12T10:32:36.285Z,20.31
2018-06-12T10:34:36.233Z,20.29
2018-06-12T10:36:36.320Z,20.26
2018-06-12T10:37:36.557Z,20.33
2018-06-12T10:38:36.525Z,20.23
2018-06-12T10:39:36.309Z,20.23
2018-06-12T10:41:36.333Z,20.35
2018-06-12T10:42:36.351Z,20.54
2018-06-12T10:43:36.376Z,20.41
2018-06-12T10:44:36.386Z,20.31
2018-06-12T10:45:36.404Z,20.36
2018-06-12T10:46:36.426Z,20.42
2018-06-12T10:47:36.447Z,20.41
2018-06-12T10:48:36.460Z,20.43
2018-06-12T10:49:36.472Z,20.32
2018-06-12T10:50:36.489Z,20.29
2018-06-12T10:51:36.517Z,20.33
2018-06-12T10:52:36.529Z,20.33
2018-06-12T10:53:36.549Z,20.39
2018-06-12T10:54:36.563Z,20.35
2018-06-12T10:55:36.578Z,20.33
2018-06-12T10:56:36.595Z,20.31
2018-06-12T10:57:37.291Z,20.17
2018-06-12T10:59:36.811Z,20.16
2018-06-12T11:00:36.671Z,20.03
2018-06-12T11:01:36.699Z,19.96
2018-06-12T11:02:36.699Z,20.06
2018-06-12T11:03:36.909Z,20.14
2018-06-12T11:04:36.933Z,20.16
2018-06-12T11:05:37.608Z,20.14
2018-06-12T11:06:36.768Z,20.20
2018-06-12T11:08:36.816Z,20.21
2018-06-12T11:09:36.820Z,20.16
2018-06-12T11:10:36.835Z,20.13
2018-06-12T11:11:36.859Z,20.24
2018-06-12T11:12:36.875Z,20.21
2018-06-12T11:14:36.914Z,19.92
2018-06-12T11:15:36.925Z,19.78
2018-06-12T11:16:36.952Z,19.73
2018-06-12T11:17:36.957Z,19.77
2018-06-12T11:18:36.972Z,19.87
2018-06-12T11:19:37.000Z,19.87
2018-06-12T11:20:37.099Z,19.92
2018-06-12T11:21:37.166Z,20.13
2018-06-12T11:22:37.046Z,20.28
2018-06-12T11:23:37.065Z,20.32
2018-06-12T11:24:38.542Z,20.33
2018-06-12T11:25:37.097Z,20.26
2018-06-12T11:26:37.114Z,20.33
2018-06-12T11:27:37.134Z,20.24
2018-06-12T11:28:37.384Z,20.23
2018-06-12T11:29:37.168Z,20.18
2018-06-12T11:30:37.185Z,20.13
2018-06-12T11:31:37.199Z,20.01
2018-06-12T11:33:37.232Z,20.11
2018-06-12T11:34:37.370Z,20.03
2018-06-12T11:35:37.421Z,20.05
2018-06-12T11:37:38.325Z,19.91
2018-06-12T11:38:37.318Z,19.73
2018-06-12T11:39:37.364Z,19.71
2018-06-12T11:40:37.349Z,19.62
2018-06-12T11:41:37.382Z,19.61
2018-06-12T11:42:37.384Z,19.62
2018-06-12T11:43:37.403Z,19.59
2018-06-12T11:44:37.421Z,19.63
2018-06-12T11:45:37.438Z,19.73
2018-06-12T11:46:37.453Z,19.63
2018-06-12T11:47:37.470Z,19.62
2018-06-12T11:48:37.877Z,19.68
2018-06-12T11:49:37.568Z,19.73
2018-06-12T11:50:37.828Z,19.78
2018-06-12T11:51:37.621Z,19.76
2018-06-12T11:52:37.565Z,19.91
2018-06-12T11:53:37.576Z,19.86
2018-06-12T11:54:37.827Z,19.94
2018-06-12T11:55:37.698Z,20.06
2018-06-12T11:56:37.627Z,20.02
2018-06-12T11:58:39.120Z,20.13
2018-06-12T11:59:37.791Z,20.05
2018-06-12T12:00:38.820Z,20.05
2018-06-12T12:01:37.758Z,20.11
2018-06-12T12:02:37.926Z,20.11
2018-06-12T12:03:37.812Z,20.16
2018-06-12T12:04:37.778Z,20.16
2018-06-12T12:06:37.884Z,20.32
2018-06-12T12:07:37.994Z,20.31
2018-06-12T12:08:37.830Z,20.33
2018-06-12T12:09:37.841Z,20.43
2018-06-12T12:10:39.331Z,20.57
2018-06-12T12:11:37.873Z,20.61
2018-06-12T12:12:37.903Z,20.67
2018-06-12T12:13:38.028Z,20.39
2018-06-12T12:14:37.933Z,20.17
2018-06-12T12:15:37.946Z,19.98
2018-06-12T12:16:37.960Z,20.05
2018-06-12T12:17:38.142Z,20.11
2018-06-12T12:18:37.993Z,19.91
2018-06-12T12:19:38.017Z,19.91
2018-06-12T12:20:38.638Z,19.98
2018-06-12T12:21:38.082Z,20.17
2018-06-12T12:22:38.130Z,20.11
2018-06-12T12:23:38.138Z,20.10
2018-06-12T12:24:38.129Z,20.02
2018-06-12T12:25:38.191Z,19.98
2018-06-12T12:26:38.384Z,20.10
2018-06-12T12:27:38.149Z,20.05
2018-06-12T12:29:38.244Z,20.33
2018-06-12T12:30:38.609Z,20.28
2018-06-12T12:32:38.242Z,20.32
2018-06-12T12:33:38.296Z,20.33
2018-06-12T12:34:38.276Z,20.43
2018-06-12T12:35:38.282Z,20.50
2018-06-12T12:36:38.300Z,20.55
2018-06-12T12:37:38.319Z,20.66
2018-06-12T12:39:38.353Z,20.58
2018-06-12T12:40:38.422Z,20.57
2018-06-12T12:41:38.697Z,20.42
2018-06-12T12:42:38.404Z,20.43
2018-06-12T12:43:38.468Z,20.41
2018-06-12T12:44:38.443Z,20.58
2018-06-12T12:45:38.461Z,20.76
2018-06-12T12:46:38.468Z,20.84
2018-06-12T12:47:38.541Z,20.85
2018-06-12T12:48:39.009Z,20.73
2018-06-12T12:49:38.518Z,20.64
2018-06-12T12:50:38.544Z,20.54
2018-06-12T12:51:38.554Z,20.51
2018-06-12T12:52:38.571Z,20.54
2018-06-12T12:53:38.649Z,20.69
2018-06-12T12:54:38.742Z,20.67
2018-06-12T12:55:38.620Z,20.57
2018-06-12T12:56:38.655Z,20.58
2018-06-12T12:57:38.659Z,20.51
2018-06-12T12:58:38.676Z,20.57
2018-06-12T12:59:39.682Z,20.55
2018-06-12T13:00:38.708Z,20.62
2018-06-12T13:01:38.798Z,20.62
2018-06-12T13:02:38.743Z,20.55
2018-06-12T13:04:38.776Z,20.32
2018-06-12T13:05:38.858Z,20.26
2018-06-12T13:06:39.214Z,20.01
2018-06-12T13:07:38.838Z,19.96
2018-06-12T13:08:39.156Z,19.96
2018-06-12T13:09:39.847Z,19.96
2018-06-12T13:10:38.885Z,20.03
2018-06-12T13:11:38.897Z,19.91
2018-06-12T13:12:38.913Z,19.91
2018-06-12T13:13:38.934Z,19.98
2018-06-12T13:14:38.948Z,20.03
2018-06-12T13:15:38.963Z,19.95
2018-06-12T13:16:38.987Z,19.95